sensor_id;sensor_type;location;lat;lon;timestamp;P1;durP1;ratioP1;P2;durP2;ratioP2
6007;SDS011;3032;49.484;11.112;2022-12-07T00:01:09;8.90;;;8.00;;
6007;SDS011;3032;49.484;11.112;2022-12-07T00:03:41;9.50;;;8.60;;
6007;SDS011;3032;49.484;11.112;2022-12-07T00:06:08;10.85;;;8.18;;
6007;SDS011;3032;49.484;11.112;2022-12-07T00:08:35;10.50;;;8.27;;
6007;SDS011;3032;49.484;11.112;2022-12-07T00:11:02;10.07;;;8.40;;
6007;SDS011;3032;49.484;11.112;2022-12-07T00:13:28;9.00;;;8.10;;
6007;SDS011;3032;49.484;11.112;2022-12-07T00:15:54;8.88;;;8.00;;
6007;SDS011;3032;49.484;11.112;2022-12-07T00:18:19;9.10;;;8.20;;
6007;SDS011;3032;49.484;11.112;2022-12-07T00:20:45;10.60;;;7.83;;
6007;SDS011;3032;49.484;11.112;2022-12-07T00:23:10;9.10;;;8.20;;
6007;SDS011;3032;49.484;11.112;2022-12-07T00:25:36;8.53;;;7.70;;
6007;SDS011;3032;49.484;11.112;2022-12-07T00:28:02;8.27;;;7.47;;
6007;SDS011;3032;49.484;11.112;2022-12-07T00:30:27;9.90;;;8.10;;
6007;SDS011;3032;49.484;11.112;2022-12-07T00:32:53;9.80;;;8.80;;
6007;SDS011;3032;49.484;11.112;2022-12-07T00:35:18;12.20;;;8.60;;
6007;SDS011;3032;49.484;11.112;2022-12-07T00:37:44;9.50;;;8.50;;
6007;SDS011;3032;49.484;11.112;2022-12-07T00:40:09;9.57;;;7.87;;
6007;SDS011;3032;49.484;11.112;2022-12-07T00:42:35;9.70;;;8.70;;
6007;SDS011;3032;49.484;11.112;2022-12-07T00:45:01;10.73;;;8.93;;
6007;SDS011;3032;49.484;11.112;2022-12-07T00:47:26;10.00;;;8.30;;
6007;SDS011;3032;49.484;11.112;2022-12-07T00:49:52;9.47;;;8.50;;
6007;SDS011;3032;49.484;11.112;2022-12-07T00:52:17;9.60;;;8.60;;
6007;SDS011;3032;49.484;11.112;2022-12-07T00:54:43;11.27;;;8.70;;
6007;SDS011;3032;49.484;11.112;2022-12-07T00:57:08;12.10;;;9.80;;
6007;SDS011;3032;49.484;11.112;2022-12-07T00:59:34;10.83;;;8.93;;
6007;SDS011;3032;49.484;11.112;2022-12-07T01:01:59;11.23;;;9.07;;
6007;SDS011;3032;49.484;11.112;2022-12-07T01:04:25;10.77;;;9.33;;
6007;SDS011;3032;49.484;11.112;2022-12-07T01:06:51;11.90;;;9.70;;
6007;SDS011;3032;49.484;11.112;2022-12-07T01:09:16;11.40;;;9.33;;
6007;SDS011;3032;49.484;11.112;2022-12-07T01:11:42;12.43;;;8.80;;
6007;SDS011;3032;49.484;11.112;2022-12-07T01:14:08;11.97;;;9.37;;
6007;SDS011;3032;49.484;11.112;2022-12-07T01:16:34;12.52;;;10.43;;
6007;SDS011;3032;49.484;11.112;2022-12-07T01:19:00;11.57;;;9.40;;
6007;SDS011;3032;49.484;11.112;2022-12-07T01:21:45;10.93;;;9.75;;
6007;SDS011;3032;49.484;11.112;2022-12-07T01:24:29;11.13;;;9.68;;
6007;SDS011;3032;49.484;11.112;2022-12-07T01:27:14;13.45;;;10.10;;
6007;SDS011;3032;49.484;11.112;2022-12-07T01:29:58;11.00;;;9.75;;
6007;SDS011;3032;49.484;11.112;2022-12-07T01:32:43;11.45;;;9.57;;
6007;SDS011;3032;49.484;11.112;2022-12-07T01:35:27;11.35;;;9.15;;
6007;SDS011;3032;49.484;11.112;2022-12-07T01:38:11;11.60;;;9.60;;
6007;SDS011;3032;49.484;11.112;2022-12-07T01:40:55;12.85;;;8.77;;
6007;SDS011;3032;49.484;11.112;2022-12-07T01:47:03;12.52;;;9.82;;
6007;SDS011;3032;49.484;11.112;2022-12-07T01:49:48;11.18;;;9.00;;
6007;SDS011;3032;49.484;11.112;2022-12-07T01:52:33;11.57;;;9.88;;
6007;SDS011;3032;49.484;11.112;2022-12-07T01:55:20;11.52;;;9.05;;
6007;SDS011;3032;49.484;11.112;2022-12-07T01:58:04;14.40;;;10.05;;
6007;SDS011;3032;49.484;11.112;2022-12-07T02:00:48;15.38;;;10.77;;
6007;SDS011;3032;49.484;11.112;2022-12-07T02:03:37;12.57;;;10.32;;
6007;SDS011;3032;49.484;11.112;2022-12-07T02:06:25;12.55;;;9.60;;
6007;SDS011;3032;49.484;11.112;2022-12-07T02:09:09;12.77;;;10.15;;
6007;SDS011;3032;49.484;11.112;2022-12-07T02:11:54;11.32;;;9.75;;
6007;SDS011;3032;49.484;11.112;2022-12-07T02:14:39;16.67;;;11.30;;
6007;SDS011;3032;49.484;11.112;2022-12-07T02:20:23;13.70;;;10.75;;
6007;SDS011;3032;49.484;11.112;2022-12-07T02:26:33;14.50;;;11.35;;
6007;SDS011;3032;49.484;11.112;2022-12-07T02:29:28;15.65;;;11.52;;
6007;SDS011;3032;49.484;11.112;2022-12-07T02:35:33;15.90;;;11.45;;
6007;SDS011;3032;49.484;11.112;2022-12-07T02:38:28;13.45;;;10.27;;
6007;SDS011;3032;49.484;11.112;2022-12-07T02:41:37;16.88;;;11.73;;
6007;SDS011;3032;49.484;11.112;2022-12-07T02:44:27;14.70;;;10.80;;
6007;SDS011;3032;49.484;11.112;2022-12-07T02:47:14;13.63;;;10.52;;
6007;SDS011;3032;49.484;11.112;2022-12-07T02:50:03;16.58;;;10.52;;
6007;SDS011;3032;49.484;11.112;2022-12-07T02:52:48;15.55;;;11.48;;
6007;SDS011;3032;49.484;11.112;2022-12-07T02:55:34;14.57;;;10.45;;
6007;SDS011;3032;49.484;11.112;2022-12-07T02:58:30;13.18;;;11.02;;
6007;SDS011;3032;49.484;11.112;2022-12-07T03:07:07;16.40;;;11.07;;
6007;SDS011;3032;49.484;11.112;2022-12-07T03:16:27;15.60;;;11.10;;
6007;SDS011;3032;49.484;11.112;2022-12-07T03:39:29;19.08;;;12.70;;
6007;SDS011;3032;49.484;11.112;2022-12-07T03:42:30;18.67;;;12.30;;
6007;SDS011;3032;49.484;11.112;2022-12-07T03:44:59;15.15;;;11.50;;
6007;SDS011;3032;49.484;11.112;2022-12-07T03:47:27;18.08;;;12.45;;
6007;SDS011;3032;49.484;11.112;2022-12-07T03:49:58;15.73;;;10.98;;
6007;SDS011;3032;49.484;11.112;2022-12-07T03:56:01;17.30;;;11.38;;
6007;SDS011;3032;49.484;11.112;2022-12-07T03:58:27;16.85;;;12.02;;
6007;SDS011;3032;49.484;11.112;2022-12-07T04:00:54;18.75;;;12.70;;
6007;SDS011;3032;49.484;11.112;2022-12-07T04:03:20;23.45;;;13.57;;
6007;SDS011;3032;49.484;11.112;2022-12-07T04:05:46;18.37;;;13.50;;
6007;SDS011;3032;49.484;11.112;2022-12-07T04:08:12;21.52;;;13.70;;
6007;SDS011;3032;49.484;11.112;2022-12-07T04:10:38;17.50;;;12.80;;
6007;SDS011;3032;49.484;11.112;2022-12-07T04:13:03;22.23;;;13.90;;
6007;SDS011;3032;49.484;11.112;2022-12-07T04:15:29;23.13;;;14.20;;
6007;SDS011;3032;49.484;11.112;2022-12-07T04:17:54;20.73;;;14.10;;
6007;SDS011;3032;49.484;11.112;2022-12-07T04:20:20;26.10;;;14.70;;
6007;SDS011;3032;49.484;11.112;2022-12-07T04:22:46;21.23;;;13.60;;
6007;SDS011;3032;49.484;11.112;2022-12-07T04:25:11;25.67;;;14.77;;
6007;SDS011;3032;49.484;11.112;2022-12-07T04:27:37;21.90;;;13.67;;
6007;SDS011;3032;49.484;11.112;2022-12-07T04:30:03;23.90;;;14.50;;
6007;SDS011;3032;49.484;11.112;2022-12-07T04:32:29;24.08;;;14.98;;
6007;SDS011;3032;49.484;11.112;2022-12-07T04:34:55;22.20;;;14.20;;
6007;SDS011;3032;49.484;11.112;2022-12-07T04:37:20;22.60;;;13.60;;
6007;SDS011;3032;49.484;11.112;2022-12-07T04:39:46;24.77;;;14.53;;
6007;SDS011;3032;49.484;11.112;2022-12-07T04:42:11;24.20;;;15.10;;
6007;SDS011;3032;49.484;11.112;2022-12-07T04:44:37;23.10;;;14.68;;
6007;SDS011;3032;49.484;11.112;2022-12-07T04:47:03;24.50;;;14.98;;
6007;SDS011;3032;49.484;11.112;2022-12-07T04:49:29;20.73;;;13.20;;
6007;SDS011;3032;49.484;11.112;2022-12-07T04:51:55;20.57;;;13.50;;
6007;SDS011;3032;49.484;11.112;2022-12-07T04:54:20;21.33;;;13.53;;
6007;SDS011;3032;49.484;11.112;2022-12-07T04:56:46;21.10;;;14.53;;
6007;SDS011;3032;49.484;11.112;2022-12-07T04:59:12;23.13;;;15.00;;
6007;SDS011;3032;49.484;11.112;2022-12-07T05:01:39;19.88;;;13.52;;
6007;SDS011;3032;49.484;11.112;2022-12-07T05:04:05;21.93;;;14.03;;
6007;SDS011;3032;49.484;11.112;2022-12-07T05:06:31;20.20;;;13.90;;
6007;SDS011;3032;49.484;11.112;2022-12-07T05:08:57;19.70;;;13.70;;
6007;SDS011;3032;49.484;11.112;2022-12-07T05:11:22;23.47;;;14.50;;
6007;SDS011;3032;49.484;11.112;2022-12-07T05:14:05;21.73;;;14.38;;
6007;SDS011;3032;49.484;11.112;2022-12-07T05:16:36;22.58;;;14.52;;
6007;SDS011;3032;49.484;11.112;2022-12-07T05:19:02;24.13;;;14.75;;
6007;SDS011;3032;49.484;11.112;2022-12-07T05:21:29;19.77;;;13.38;;
6007;SDS011;3032;49.484;11.112;2022-12-07T05:23:55;22.40;;;15.10;;
6007;SDS011;3032;49.484;11.112;2022-12-07T05:26:21;22.63;;;14.87;;
6007;SDS011;3032;49.484;11.112;2022-12-07T05:28:49;21.50;;;14.93;;
6007;SDS011;3032;49.484;11.112;2022-12-07T05:31:16;22.33;;;14.07;;
6007;SDS011;3032;49.484;11.112;2022-12-07T05:33:42;23.20;;;14.53;;
6007;SDS011;3032;49.484;11.112;2022-12-07T05:36:07;21.90;;;14.20;;
6007;SDS011;3032;49.484;11.112;2022-12-07T05:38:33;19.67;;;12.93;;
6007;SDS011;3032;49.484;11.112;2022-12-07T05:41:02;22.77;;;14.70;;
6007;SDS011;3032;49.484;11.112;2022-12-07T05:43:30;23.48;;;14.18;;
6007;SDS011;3032;49.484;11.112;2022-12-07T05:45:56;19.98;;;14.50;;
6007;SDS011;3032;49.484;11.112;2022-12-07T05:48:22;21.00;;;14.68;;
6007;SDS011;3032;49.484;11.112;2022-12-07T05:50:48;19.90;;;13.30;;
6007;SDS011;3032;49.484;11.112;2022-12-07T05:53:14;21.27;;;14.38;;
6007;SDS011;3032;49.484;11.112;2022-12-07T05:55:40;21.53;;;13.90;;
6007;SDS011;3032;49.484;11.112;2022-12-07T05:58:05;22.90;;;15.20;;
6007;SDS011;3032;49.484;11.112;2022-12-07T06:00:49;21.17;;;13.90;;
6007;SDS011;3032;49.484;11.112;2022-12-07T06:03:15;21.43;;;13.50;;
6007;SDS011;3032;49.484;11.112;2022-12-07T06:05:41;20.53;;;14.17;;
6007;SDS011;3032;49.484;11.112;2022-12-07T06:08:06;20.70;;;12.97;;
6007;SDS011;3032;49.484;11.112;2022-12-07T06:10:32;23.60;;;14.65;;
6007;SDS011;3032;49.484;11.112;2022-12-07T06:15:36;20.42;;;13.45;;
6007;SDS011;3032;49.484;11.112;2022-12-07T06:18:02;22.40;;;14.70;;
6007;SDS011;3032;49.484;11.112;2022-12-07T06:20:27;21.93;;;14.97;;
6007;SDS011;3032;49.484;11.112;2022-12-07T06:22:53;22.27;;;14.00;;
6007;SDS011;3032;49.484;11.112;2022-12-07T06:25:19;26.10;;;14.07;;
6007;SDS011;3032;49.484;11.112;2022-12-07T06:27:44;23.50;;;15.60;;
6007;SDS011;3032;49.484;11.112;2022-12-07T06:30:10;23.53;;;15.43;;
6007;SDS011;3032;49.484;11.112;2022-12-07T06:32:36;23.60;;;15.30;;
6007;SDS011;3032;49.484;11.112;2022-12-07T06:35:02;24.58;;;16.02;;
6007;SDS011;3032;49.484;11.112;2022-12-07T06:37:28;22.50;;;14.38;;
6007;SDS011;3032;49.484;11.112;2022-12-07T06:39:54;23.70;;;14.70;;
6007;SDS011;3032;49.484;11.112;2022-12-07T06:42:19;23.00;;;14.07;;
6007;SDS011;3032;49.484;11.112;2022-12-07T06:44:45;22.57;;;15.03;;
6007;SDS011;3032;49.484;11.112;2022-12-07T06:47:10;22.37;;;14.20;;
6007;SDS011;3032;49.484;11.112;2022-12-07T06:49:36;22.50;;;14.80;;
6007;SDS011;3032;49.484;11.112;2022-12-07T06:52:02;24.00;;;15.40;;
6007;SDS011;3032;49.484;11.112;2022-12-07T06:54:29;23.08;;;14.88;;
6007;SDS011;3032;49.484;11.112;2022-12-07T06:56:55;23.60;;;14.80;;
6007;SDS011;3032;49.484;11.112;2022-12-07T06:59:21;22.80;;;14.87;;
6007;SDS011;3032;49.484;11.112;2022-12-07T07:01:46;26.73;;;16.27;;
6007;SDS011;3032;49.484;11.112;2022-12-07T07:04:12;26.63;;;15.57;;
6007;SDS011;3032;49.484;11.112;2022-12-07T07:06:38;26.00;;;16.20;;
6007;SDS011;3032;49.484;11.112;2022-12-07T07:09:03;25.37;;;15.20;;
6007;SDS011;3032;49.484;11.112;2022-12-07T07:11:29;26.33;;;15.03;;
6007;SDS011;3032;49.484;11.112;2022-12-07T07:13:54;22.50;;;15.47;;
6007;SDS011;3032;49.484;11.112;2022-12-07T07:16:22;28.20;;;18.25;;
6007;SDS011;3032;49.484;11.112;2022-12-07T07:18:48;31.10;;;18.05;;
6007;SDS011;3032;49.484;11.112;2022-12-07T07:21:13;27.23;;;16.40;;
6007;SDS011;3032;49.484;11.112;2022-12-07T07:23:39;23.60;;;14.30;;
6007;SDS011;3032;49.484;11.112;2022-12-07T07:26:04;22.73;;;15.23;;
6007;SDS011;3032;49.484;11.112;2022-12-07T07:28:30;23.90;;;15.00;;
6007;SDS011;3032;49.484;11.112;2022-12-07T07:30:56;24.27;;;15.77;;
6007;SDS011;3032;49.484;11.112;2022-12-07T07:33:21;21.13;;;12.90;;
6007;SDS011;3032;49.484;11.112;2022-12-07T07:35:47;25.27;;;15.60;;
6007;SDS011;3032;49.484;11.112;2022-12-07T07:38:12;22.73;;;15.17;;
6007;SDS011;3032;49.484;11.112;2022-12-07T07:40:38;25.90;;;16.40;;
6007;SDS011;3032;49.484;11.112;2022-12-07T07:43:04;21.40;;;14.30;;
6007;SDS011;3032;49.484;11.112;2022-12-07T07:45:29;21.60;;;14.20;;
6007;SDS011;3032;49.484;11.112;2022-12-07T07:47:55;19.63;;;13.43;;
6007;SDS011;3032;49.484;11.112;2022-12-07T07:50:20;20.90;;;13.17;;
6007;SDS011;3032;49.484;11.112;2022-12-07T07:52:46;23.23;;;13.20;;
6007;SDS011;3032;49.484;11.112;2022-12-07T07:55:12;23.88;;;13.65;;
6007;SDS011;3032;49.484;11.112;2022-12-07T07:57:39;23.15;;;15.00;;
6007;SDS011;3032;49.484;11.112;2022-12-07T08:00:09;23.33;;;14.70;;
6007;SDS011;3032;49.484;11.112;2022-12-07T08:02:37;22.27;;;13.70;;
6007;SDS011;3032;49.484;11.112;2022-12-07T08:05:02;22.23;;;14.23;;
6007;SDS011;3032;49.484;11.112;2022-12-07T08:07:28;19.53;;;13.27;;
6007;SDS011;3032;49.484;11.112;2022-12-07T08:09:54;23.00;;;14.57;;
6007;SDS011;3032;49.484;11.112;2022-12-07T08:12:19;24.13;;;15.37;;
6007;SDS011;3032;49.484;11.112;2022-12-07T08:14:45;21.07;;;13.70;;
6007;SDS011;3032;49.484;11.112;2022-12-07T08:17:10;23.27;;;15.00;;
6007;SDS011;3032;49.484;11.112;2022-12-07T08:19:37;29.70;;;14.18;;
6007;SDS011;3032;49.484;11.112;2022-12-07T08:22:03;23.90;;;12.93;;
6007;SDS011;3032;49.484;11.112;2022-12-07T08:24:28;24.07;;;13.60;;
6007;SDS011;3032;49.484;11.112;2022-12-07T08:26:54;20.00;;;13.10;;
6007;SDS011;3032;49.484;11.112;2022-12-07T08:29:20;28.30;;;13.67;;
6007;SDS011;3032;49.484;11.112;2022-12-07T08:31:45;23.45;;;14.00;;
6007;SDS011;3032;49.484;11.112;2022-12-07T08:34:11;25.97;;;13.10;;
6007;SDS011;3032;49.484;11.112;2022-12-07T08:36:38;23.60;;;13.60;;
6007;SDS011;3032;49.484;11.112;2022-12-07T08:39:03;26.20;;;13.70;;
6007;SDS011;3032;49.484;11.112;2022-12-07T08:41:29;22.83;;;13.80;;
6007;SDS011;3032;49.484;11.112;2022-12-07T08:43:55;20.47;;;14.27;;
6007;SDS011;3032;49.484;11.112;2022-12-07T08:49:16;21.10;;;14.43;;
6007;SDS011;3032;49.484;11.112;2022-12-07T08:51:47;19.77;;;13.60;;
6007;SDS011;3032;49.484;11.112;2022-12-07T08:54:14;21.90;;;13.97;;
6007;SDS011;3032;49.484;11.112;2022-12-07T08:56:41;15.32;;;10.98;;
6007;SDS011;3032;49.484;11.112;2022-12-07T08:59:09;22.80;;;12.68;;
6007;SDS011;3032;49.484;11.112;2022-12-07T09:01:35;22.30;;;12.73;;
6007;SDS011;3032;49.484;11.112;2022-12-07T09:04:00;19.10;;;11.43;;
6007;SDS011;3032;49.484;11.112;2022-12-07T09:06:26;22.97;;;11.80;;
6007;SDS011;3032;49.484;11.112;2022-12-07T09:08:54;21.55;;;12.70;;
6007;SDS011;3032;49.484;11.112;2022-12-07T09:11:23;15.80;;;10.95;;
6007;SDS011;3032;49.484;11.112;2022-12-07T09:13:49;16.40;;;11.10;;
6007;SDS011;3032;49.484;11.112;2022-12-07T09:16:15;18.53;;;10.30;;
6007;SDS011;3032;49.484;11.112;2022-12-07T09:18:40;26.50;;;10.90;;
6007;SDS011;3032;49.484;11.112;2022-12-07T09:21:06;19.05;;;10.15;;
6007;SDS011;3032;49.484;11.112;2022-12-07T09:23:32;53.10;;;13.10;;
6007;SDS011;3032;49.484;11.112;2022-12-07T09:26:02;20.17;;;10.30;;
6007;SDS011;3032;49.484;11.112;2022-12-07T09:28:29;17.17;;;10.23;;
6007;SDS011;3032;49.484;11.112;2022-12-07T09:30:56;17.50;;;10.80;;
6007;SDS011;3032;49.484;11.112;2022-12-07T09:33:21;22.03;;;12.03;;
6007;SDS011;3032;49.484;11.112;2022-12-07T09:35:47;20.07;;;10.80;;
6007;SDS011;3032;49.484;11.112;2022-12-07T09:38:14;14.45;;;9.13;;
6007;SDS011;3032;49.484;11.112;2022-12-07T09:40:40;17.55;;;10.13;;
6007;SDS011;3032;49.484;11.112;2022-12-07T09:43:21;18.30;;;11.70;;
6007;SDS011;3032;49.484;11.112;2022-12-07T09:45:50;20.70;;;11.35;;
6007;SDS011;3032;49.484;11.112;2022-12-07T09:48:20;14.88;;;9.68;;
6007;SDS011;3032;49.484;11.112;2022-12-07T09:50:47;21.90;;;11.70;;
6007;SDS011;3032;49.484;11.112;2022-12-07T09:53:20;27.10;;;11.35;;
6007;SDS011;3032;49.484;11.112;2022-12-07T09:55:53;14.43;;;9.90;;
6007;SDS011;3032;49.484;11.112;2022-12-07T09:58:22;16.77;;;10.60;;
6007;SDS011;3032;49.484;11.112;2022-12-07T10:00:50;15.73;;;10.02;;
6007;SDS011;3032;49.484;11.112;2022-12-07T10:03:27;15.75;;;10.07;;
6007;SDS011;3032;49.484;11.112;2022-12-07T10:05:54;19.27;;;9.90;;
6007;SDS011;3032;49.484;11.112;2022-12-07T10:08:20;15.55;;;11.05;;
6007;SDS011;3032;49.484;11.112;2022-12-07T10:10:48;16.67;;;10.50;;
6007;SDS011;3032;49.484;11.112;2022-12-07T10:13:20;18.30;;;10.90;;
6007;SDS011;3032;49.484;11.112;2022-12-07T10:15:58;18.67;;;11.38;;
6007;SDS011;3032;49.484;11.112;2022-12-07T10:21:14;15.63;;;10.57;;
6007;SDS011;3032;49.484;11.112;2022-12-07T10:23:43;14.48;;;9.95;;
6007;SDS011;3032;49.484;11.112;2022-12-07T10:26:26;17.52;;;10.73;;
6007;SDS011;3032;49.484;11.112;2022-12-07T10:29:02;22.90;;;10.68;;
6007;SDS011;3032;49.484;11.112;2022-12-07T10:31:54;15.60;;;10.23;;
6007;SDS011;3032;49.484;11.112;2022-12-07T10:37:06;17.35;;;10.98;;
6007;SDS011;3032;49.484;11.112;2022-12-07T10:42:17;15.18;;;9.63;;
6007;SDS011;3032;49.484;11.112;2022-12-07T10:47:58;11.48;;;9.07;;
6007;SDS011;3032;49.484;11.112;2022-12-07T10:51:18;14.20;;;9.73;;
6007;SDS011;3032;49.484;11.112;2022-12-07T11:12:04;16.77;;;11.82;;
6007;SDS011;3032;49.484;11.112;2022-12-07T11:14:56;18.65;;;11.55;;
6007;SDS011;3032;49.484;11.112;2022-12-07T11:20:29;15.05;;;10.05;;
6007;SDS011;3032;49.484;11.112;2022-12-07T11:23:18;15.38;;;11.25;;
6007;SDS011;3032;49.484;11.112;2022-12-07T11:26:10;15.52;;;11.05;;
6007;SDS011;3032;49.484;11.112;2022-12-07T11:28:50;14.43;;;9.73;;
6007;SDS011;3032;49.484;11.112;2022-12-07T11:37:17;13.68;;;10.23;;
6007;SDS011;3032;49.484;11.112;2022-12-07T11:39:48;24.23;;;14.95;;
6007;SDS011;3032;49.484;11.112;2022-12-07T11:42:21;17.98;;;10.88;;
6007;SDS011;3032;49.484;11.112;2022-12-07T11:44:52;15.20;;;10.70;;
6007;SDS011;3032;49.484;11.112;2022-12-07T11:47:51;16.73;;;11.70;;
6007;SDS011;3032;49.484;11.112;2022-12-07T11:50:39;13.60;;;10.65;;
6007;SDS011;3032;49.484;11.112;2022-12-07T11:53:17;14.40;;;10.52;;
6007;SDS011;3032;49.484;11.112;2022-12-07T12:01:13;20.27;;;11.95;;
6007;SDS011;3032;49.484;11.112;2022-12-07T12:03:52;16.90;;;10.98;;
6007;SDS011;3032;49.484;11.112;2022-12-07T12:06:22;16.27;;;11.35;;
6007;SDS011;3032;49.484;11.112;2022-12-07T12:08:50;16.83;;;12.23;;
6007;SDS011;3032;49.484;11.112;2022-12-07T12:21:57;16.88;;;11.73;;
6007;SDS011;3032;49.484;11.112;2022-12-07T12:24:45;19.63;;;11.25;;
6007;SDS011;3032;49.484;11.112;2022-12-07T12:27:26;16.98;;;12.00;;
6007;SDS011;3032;49.484;11.112;2022-12-07T12:29:56;16.55;;;10.32;;
6007;SDS011;3032;49.484;11.112;2022-12-07T12:32:34;17.02;;;11.07;;
6007;SDS011;3032;49.484;11.112;2022-12-07T12:35:20;19.15;;;11.20;;
6007;SDS011;3032;49.484;11.112;2022-12-07T12:40:56;17.10;;;11.65;;
6007;SDS011;3032;49.484;11.112;2022-12-07T12:43:42;16.90;;;11.60;;
6007;SDS011;3032;49.484;11.112;2022-12-07T12:51:41;17.52;;;11.00;;
6007;SDS011;3032;49.484;11.112;2022-12-07T12:54:15;13.93;;;9.70;;
6007;SDS011;3032;49.484;11.112;2022-12-07T13:02:29;14.80;;;10.65;;
6007;SDS011;3032;49.484;11.112;2022-12-07T13:15:44;21.17;;;14.10;;
6007;SDS011;3032;49.484;11.112;2022-12-07T13:26:19;25.95;;;13.55;;
6007;SDS011;3032;49.484;11.112;2022-12-07T13:29:05;25.05;;;12.73;;
6007;SDS011;3032;49.484;11.112;2022-12-07T13:34:49;16.95;;;12.38;;
6007;SDS011;3032;49.484;11.112;2022-12-07T13:37:00;36.10;;;12.18;;
6007;SDS011;3032;49.484;11.112;2022-12-07T13:39:29;27.33;;;12.75;;
6007;SDS011;3032;49.484;11.112;2022-12-07T13:41:58;21.75;;;11.80;;
6007;SDS011;3032;49.484;11.112;2022-12-07T13:44:27;21.60;;;12.88;;
6007;SDS011;3032;49.484;11.112;2022-12-07T13:49:56;19.75;;;12.80;;
6007;SDS011;3032;49.484;11.112;2022-12-07T13:54:56;17.52;;;11.30;;
6007;SDS011;3032;49.484;11.112;2022-12-07T13:57:29;18.65;;;11.55;;
6007;SDS011;3032;49.484;11.112;2022-12-07T13:59:56;18.13;;;12.20;;
6007;SDS011;3032;49.484;11.112;2022-12-07T14:02:30;16.63;;;12.15;;
6007;SDS011;3032;49.484;11.112;2022-12-07T14:13:34;14.80;;;11.40;;
6007;SDS011;3032;49.484;11.112;2022-12-07T14:16:01;16.10;;;11.70;;
6007;SDS011;3032;49.484;11.112;2022-12-07T14:18:37;17.33;;;12.57;;
6007;SDS011;3032;49.484;11.112;2022-12-07T14:23:36;14.00;;;9.82;;
6007;SDS011;3032;49.484;11.112;2022-12-07T14:28:39;14.38;;;10.95;;
6007;SDS011;3032;49.484;11.112;2022-12-07T14:31:24;15.43;;;11.02;;
6007;SDS011;3032;49.484;11.112;2022-12-07T14:33:50;13.25;;;9.63;;
6007;SDS011;3032;49.484;11.112;2022-12-07T14:36:16;18.13;;;11.17;;
6007;SDS011;3032;49.484;11.112;2022-12-07T14:38:41;14.33;;;10.60;;
6007;SDS011;3032;49.484;11.112;2022-12-07T14:41:12;14.20;;;9.00;;
6007;SDS011;3032;49.484;11.112;2022-12-07T14:43:58;9.65;;;6.80;;
6007;SDS011;3032;49.484;11.112;2022-12-07T14:46:24;13.48;;;8.35;;
6007;SDS011;3032;49.484;11.112;2022-12-07T14:48:50;8.60;;;5.83;;
6007;SDS011;3032;49.484;11.112;2022-12-07T14:51:16;9.17;;;6.60;;
6007;SDS011;3032;49.484;11.112;2022-12-07T14:53:43;10.63;;;7.23;;
6007;SDS011;3032;49.484;11.112;2022-12-07T14:56:12;7.05;;;6.10;;
6007;SDS011;3032;49.484;11.112;2022-12-07T14:58:38;7.73;;;5.83;;
6007;SDS011;3032;49.484;11.112;2022-12-07T15:01:05;12.60;;;8.65;;
6007;SDS011;3032;49.484;11.112;2022-12-07T15:03:30;6.77;;;5.67;;
6007;SDS011;3032;49.484;11.112;2022-12-07T15:05:56;10.10;;;6.73;;
6007;SDS011;3032;49.484;11.112;2022-12-07T15:08:22;10.40;;;7.33;;
6007;SDS011;3032;49.484;11.112;2022-12-07T15:10:47;8.30;;;7.00;;
6007;SDS011;3032;49.484;11.112;2022-12-07T15:13:13;12.10;;;8.93;;
6007;SDS011;3032;49.484;11.112;2022-12-07T15:15:57;10.25;;;7.72;;
6007;SDS011;3032;49.484;11.112;2022-12-07T15:18:23;16.10;;;9.37;;
6007;SDS011;3032;49.484;11.112;2022-12-07T15:20:49;13.85;;;11.20;;
6007;SDS011;3032;49.484;11.112;2022-12-07T15:23:15;18.83;;;12.88;;
6007;SDS011;3032;49.484;11.112;2022-12-07T15:25:41;15.40;;;10.90;;
6007;SDS011;3032;49.484;11.112;2022-12-07T15:28:08;22.75;;;13.68;;
6007;SDS011;3032;49.484;11.112;2022-12-07T15:30:36;27.30;;;17.17;;
6007;SDS011;3032;49.484;11.112;2022-12-07T15:33:02;30.00;;;18.13;;
6007;SDS011;3032;49.484;11.112;2022-12-07T15:35:28;30.73;;;18.70;;
6007;SDS011;3032;49.484;11.112;2022-12-07T15:37:53;25.87;;;16.50;;
6007;SDS011;3032;49.484;11.112;2022-12-07T15:40:19;24.13;;;15.80;;
6007;SDS011;3032;49.484;11.112;2022-12-07T15:42:44;32.00;;;20.60;;
6007;SDS011;3032;49.484;11.112;2022-12-07T15:45:10;36.47;;;22.60;;
6007;SDS011;3032;49.484;11.112;2022-12-07T15:47:36;48.83;;;30.40;;
6007;SDS011;3032;49.484;11.112;2022-12-07T15:50:08;45.35;;;28.48;;
6007;SDS011;3032;49.484;11.112;2022-12-07T15:52:36;30.02;;;18.60;;
6007;SDS011;3032;49.484;11.112;2022-12-07T15:55:02;25.83;;;18.10;;
6007;SDS011;3032;49.484;11.112;2022-12-07T15:57:28;21.73;;;15.30;;
6007;SDS011;3032;49.484;11.112;2022-12-07T15:59:54;24.80;;;15.15;;
6007;SDS011;3032;49.484;11.112;2022-12-07T16:02:20;25.03;;;15.10;;
6007;SDS011;3032;49.484;11.112;2022-12-07T16:04:47;19.83;;;12.68;;
6007;SDS011;3032;49.484;11.112;2022-12-07T16:07:13;20.80;;;14.53;;
6007;SDS011;3032;49.484;11.112;2022-12-07T16:09:40;19.58;;;13.30;;
6007;SDS011;3032;49.484;11.112;2022-12-07T16:12:09;23.13;;;13.45;;
6007;SDS011;3032;49.484;11.112;2022-12-07T16:14:36;24.27;;;15.13;;
6007;SDS011;3032;49.484;11.112;2022-12-07T16:17:02;27.63;;;17.30;;
6007;SDS011;3032;49.484;11.112;2022-12-07T16:19:29;29.75;;;18.08;;
6007;SDS011;3032;49.484;11.112;2022-12-07T16:21:55;32.08;;;18.55;;
6007;SDS011;3032;49.484;11.112;2022-12-07T16:24:21;29.50;;;18.02;;
6007;SDS011;3032;49.484;11.112;2022-12-07T16:26:47;30.60;;;18.57;;
6007;SDS011;3032;49.484;11.112;2022-12-07T16:29:13;27.75;;;17.30;;
6007;SDS011;3032;49.484;11.112;2022-12-07T16:31:39;21.23;;;14.32;;
6007;SDS011;3032;49.484;11.112;2022-12-07T16:34:05;24.60;;;15.30;;
6007;SDS011;3032;49.484;11.112;2022-12-07T16:36:32;26.42;;;15.77;;
6007;SDS011;3032;49.484;11.112;2022-12-07T16:38:58;27.47;;;15.80;;
6007;SDS011;3032;49.484;11.112;2022-12-07T16:41:25;28.13;;;16.40;;
6007;SDS011;3032;49.484;11.112;2022-12-07T16:43:50;28.13;;;17.90;;
6007;SDS011;3032;49.484;11.112;2022-12-07T16:46:16;24.27;;;15.63;;
6007;SDS011;3032;49.484;11.112;2022-12-07T16:48:41;23.50;;;14.97;;
6007;SDS011;3032;49.484;11.112;2022-12-07T16:51:08;24.40;;;15.70;;
6007;SDS011;3032;49.484;11.112;2022-12-07T16:53:36;19.38;;;13.10;;
6007;SDS011;3032;49.484;11.112;2022-12-07T16:56:02;19.65;;;14.13;;
6007;SDS011;3032;49.484;11.112;2022-12-07T16:58:29;22.30;;;15.57;;
6007;SDS011;3032;49.484;11.112;2022-12-07T17:00:56;24.83;;;14.75;;
6007;SDS011;3032;49.484;11.112;2022-12-07T17:03:21;24.63;;;16.47;;
6007;SDS011;3032;49.484;11.112;2022-12-07T17:05:47;25.83;;;15.47;;
6007;SDS011;3032;49.484;11.112;2022-12-07T17:08:13;27.38;;;16.88;;
6007;SDS011;3032;49.484;11.112;2022-12-07T17:10:41;24.17;;;16.42;;
6007;SDS011;3032;49.484;11.112;2022-12-07T17:13:08;23.75;;;14.80;;
6007;SDS011;3032;49.484;11.112;2022-12-07T17:15:59;25.55;;;16.33;;
6007;SDS011;3032;49.484;11.112;2022-12-07T17:18:28;25.63;;;15.75;;
6007;SDS011;3032;49.484;11.112;2022-12-07T17:20:56;26.17;;;17.95;;
6007;SDS011;3032;49.484;11.112;2022-12-07T17:23:28;24.08;;;16.20;;
6007;SDS011;3032;49.484;11.112;2022-12-07T17:25:55;25.55;;;16.13;;
6007;SDS011;3032;49.484;11.112;2022-12-07T17:28:20;23.83;;;15.90;;
6007;SDS011;3032;49.484;11.112;2022-12-07T17:30:46;30.00;;;16.67;;
6007;SDS011;3032;49.484;11.112;2022-12-07T17:33:12;28.80;;;16.57;;
6007;SDS011;3032;49.484;11.112;2022-12-07T17:35:37;35.23;;;22.23;;
6007;SDS011;3032;49.484;11.112;2022-12-07T17:38:03;31.30;;;19.00;;
6007;SDS011;3032;49.484;11.112;2022-12-07T17:40:29;29.70;;;17.63;;